Data for 02/03/2006

Time Sea-Level Adjusted Pressure Absolute Pressure Temperature Relative Humidity Dew Point   
(mb) (inHg) (mb) (inHg) (C) (F) (%) (C) (F)
00:05 1014 29.94 843 24.89 -1.2 29.8 47 -11.1 11.9
00:10 1014 29.94 843 24.89 -1.2 29.9 47 -11.1 12
00:15 1014 29.94 843 24.89 -1.1 29.9 46 -11.3 11.6
00:20 1014 29.94 843 24.89 -1.1 30 46 -11.4 11.5
00:25 1014 29.94 843 24.89 -1.1 30 47 -11.1 12
00:30 1013 29.91 843 24.89 -1.2 29.9 48 -10.9 12.3
00:35 1013 29.91 843 24.89 -1.3 29.6 46 -11.4 11.5
00:40 1013 29.91 843 24.89 -1.1 30 46 -11.4 11.5
00:45 1013 29.91 843 24.89 -1 30.2 47 -10.8 12.5
00:50 1013 29.91 843 24.89 -1 30.2 46 -11.2 11.8
00:55 1013 29.91 843 24.89 -1 30.2 47 -10.9 12.4
01:00 1013 29.91 843 24.89 -1.2 29.8 49 -10.6 12.8
01:05 1013 29.91 843 24.89 -1.1 30 45 -11.5 11.3
01:10 1013 29.91 843 24.89 -0.9 30.3 46 -11.2 11.8
01:15 1013 29.91 843 24.89 -1.1 30.1 46 -11.3 11.7
01:20 1013 29.91 842 24.86 -1.1 30.1 47 -11.1 12
01:25 1013 29.91 843 24.89 -1.5 29.4 48 -11.1 12
01:30 1013 29.91 843 24.89 -1.6 29 51 -10.6 12.9
01:35 1013 29.91 842 24.86 -2.1 28.2 51 -10.9 12.4
01:40 1013 29.91 842 24.86 -2.2 28.1 51 -11.1 12.1
01:45 1013 29.91 842 24.86 -2 28.3 50 -11 12.2
01:50 1013 29.91 842 24.86 -1.6 29.1 49 -11.1 12
01:55 1013 29.91 842 24.86 -1.4 29.5 48 -11 12.2
02:00 1013 29.91 842 24.86 -1.2 29.8 47 -11.2 11.9
02:05 1013 29.91 842 24.86 -1 30.1 46 -11.4 11.5
02:10 1013 29.91 842 24.86 -0.9 30.3 46 -11.2 11.8
02:15 1013 29.91 842 24.86 -0.7 30.7 45 -11.2 11.8
02:20 1013 29.91 842 24.86 -0.6 31 46 -10.9 12.3
02:25 1013 29.91 842 24.86 -0.3 31.4 46 -10.7 12.7
02:30 1013 29.91 842 24.86 -0.1 31.8 45 -10.7 12.7
02:35 1013 29.91 842 24.86 -0 32 46 -10.4 13.3
02:40 1013 29.91 842 24.86 -0.1 31.8 47 -10 13.9
02:45 1013 29.91 842 24.86 -0.1 31.8 46 -10.4 13.3
02:50 1013 29.91 842 24.86 -0.1 31.9 47 -10.2 13.7
02:55 1013 29.91 842 24.86 -0 32 47 -9.9 14.1
03:00 1013 29.91 842 24.86 -0 32 47 -10.1 13.9
03:05 1013 29.91 842 24.86 0.2 32.4 45 -10.2 13.6
03:10 1013 29.91 842 24.86 0.4 32.8 46 -9.8 14.4
03:15 1013 29.91 842 24.86 0.3 32.6 47 -9.6 14.7
03:20 1013 29.91 842 24.86 0.1 32.2 50 -9 15.7
03:25 1013 29.91 842 24.86 -0.3 31.4 51 -9.3 15.2
03:30 1013 29.91 842 24.86 -0.6 30.8 53 -9.1 15.6
03:35 1013 29.91 842 24.86 -0.5 31 55 -8.6 16.6
03:40 1013 29.91 842 24.86 -0.2 31.7 51 -9 15.7
03:45 1013 29.91 842 24.86 0.7 33.2 51 -8.5 16.8
03:50 1013 29.91 842 24.86 0.9 33.6 51 -8.2 17.3
03:55 1013 29.91 842 24.86 1 33.8 51 -7.9 17.7
04:00 1013 29.91 842 24.86 1.1 33.9 52 -7.8 18
04:05 1013 29.91 842 24.86 1.2 34.2 52 -7.6 18.3
04:10 1013 29.91 842 24.86 1.5 34.7 52 -7.5 18.6
04:15 1013 29.91 842 24.86 1.4 34.4 53 -7.3 18.9
04:20 1013 29.91 842 24.86 1.4 34.6 53 -7.1 19.3
04:25 1013 29.91 842 24.86 1.3 34.4 53 -7.2 19
04:30 1013 29.91 842 24.86 1.4 34.4 52 -7.4 18.7
04:35 1013 29.91 842 24.86 1.2 34.2 55 -6.9 19.6
04:40 1013 29.91 842 24.86 1 33.7 56 -6.8 19.7
04:45 1013 29.91 842 24.86 0.9 33.7 55 -7.1 19.3
04:50 1013 29.91 842 24.86 1 33.7 57 -6.7 20
04:55 1013 29.91 842 24.86 0.7 33.3 58 -6.7 20
05:00 1013 29.91 842 24.86 0.6 33.1 57 -7.1 19.3
05:05 1013 29.91 843 24.89 0.7 33.2 57 -7 19.5
05:10 1013 29.91 843 24.89 0.7 33.2 57 -6.9 19.6
05:15 1014 29.94 843 24.89 0.6 33.1 59 -6.5 20.3
05:20 1014 29.94 843 24.89 0.4 32.7 60 -6.4 20.5
05:25 1014 29.94 843 24.89 0.2 32.4 60 -6.6 20.1
05:30 1014 29.94 843 24.89 0.2 32.3 59 -7 19.4
05:35 1014 29.94 843 24.89 0.4 32.7 55 -7.6 18.4
05:40 1014 29.94 843 24.89 0.8 33.4 54 -7.6 18.3
05:45 1014 29.94 843 24.89 0.9 33.6 54 -7.5 18.5
05:50 1014 29.94 843 24.89 0.8 33.5 54 -7.6 18.4
05:55 1014 29.94 844 24.92 0.8 33.4 55 -7.4 18.7
06:00 1015 29.97 844 24.92 0.7 33.2 55 -7.3 18.9
06:05 1015 29.97 844 24.92 0.6 33.1 55 -7.5 18.5
06:10 1015 29.97 844 24.92 0.4 32.8 56 -7.3 18.9
06:15 1015 29.97 844 24.92 0.2 32.4 57 -7.3 18.9
06:20 1015 29.97 844 24.92 0 32 58 -7.2 19
06:25 1015 29.97 844 24.92 0.2 32.3 56 -7.6 18.4
06:30 1015 29.97 844 24.92 0.6 33.1 55 -7.4 18.8
06:35 1015 29.97 844 24.92 0.6 33.1 55 -7.3 18.8
06:40 1015 29.97 844 24.92 0.5 33 56 -7.3 18.9
06:45 1015 29.97 844 24.92 0.4 32.8 56 -7.3 18.8
06:50 1015 29.97 844 24.92 0.4 32.8 56 -7.3 18.9
06:55 1015 29.97 844 24.92 0.5 32.9 56 -7.4 18.7
07:00 1015 29.97 844 24.92 0.5 32.9 56 -7.2 19
07:05 1015 29.97 844 24.92 0.5 32.9 57 -7.1 19.2
07:10 1015 29.97 845 24.95 0.4 32.7 57 -7.1 19.2
07:15 1015 29.97 845 24.95 0.5 32.8 55 -7.5 18.6
07:20 1015 29.97 845 24.95 0.7 33.2 55 -7.3 18.9
07:25 1016 30 845 24.95 0.7 33.3 56 -7 19.4
07:30 1016 30 845 24.95 0.5 32.9 58 -6.7 19.9
07:35 1016 30 845 24.95 0.3 32.5 59 -6.8 19.8
07:40 1016 30 845 24.95 0.3 32.5 60 -6.7 20
07:45 1016 30 845 24.95 0.3 32.6 60 -6.6 20.1
07:50 1016 30 845 24.95 0.1 32.2 61 -6.5 20.2
07:55 1016 30 845 24.95 0 32.1 61 -6.6 20
08:00 1016 30 845 24.95 -0.4 31.3 64 -6.4 20.5
08:05 1016 30 845 24.95 -0.7 30.7 64 -6.8 19.8
08:10 1016 30 845 24.95 -0.7 30.8 64 -6.6 20
08:15 1016 30 845 24.95 -0.5 31.1 62 -6.9 19.6
08:20 1016 30 845 24.95 -0.5 31.1 63 -6.8 19.8
08:25 1016 30 845 24.95 -0.4 31.3 62 -6.8 19.7
08:30 1016 30 846 24.98 -0.1 31.8 61 -6.8 19.7
08:35 1017 30.03 846 24.98 0 32 60 -6.8 19.7
08:40 1017 30.03 846 24.98 0 32.1 61 -6.7 19.9
08:45 1017 30.03 846 24.98 -0 31.9 61 -6.7 20
08:50 1017 30.03 846 24.98 0 32 61 -6.6 20.1
08:55 1017 30.03 846 24.98 0.1 32.2 60 -6.7 20
09:00 1017 30.03 846 24.98 0.2 32.3 60 -6.6 20.1
09:05 1017 30.03 846 24.98 0.2 32.4 60 -6.7 20
09:10 1017 30.03 846 24.98 0.1 32.2 61 -6.5 20.3
09:15 1017 30.03 846 24.98 0.2 32.4 60 -6.6 20.1
09:20 1017 30.03 846 24.98 0.2 32.4 62 -6.3 20.6
09:25 1017 30.03 846 24.98 0.1 32.1 62 -6.5 20.4
09:30 1017 30.03 847 25.01 0.5 33 58 -6.9 19.6
09:35 1017 30.03 847 25.01 1.4 34.5 55 -6.6 20.1
09:40 1017 30.03 847 25.01 1.9 35.4 51 -7.1 19.2
09:45 1017 30.03 847 25.01 2.3 36.1 48 -7.6 18.4
09:50 1018 30.06 847 25.01 2.7 36.8 47 -7.5 18.6
09:55 1018 30.06 847 25.01 3 37.4 46 -7.6 18.3
10:00 1018 30.06 847 25.01 3.2 37.8 46 -7.3 18.8
10:05 1018 30.06 847 25.01 3.4 38.1 45 -7.6 18.3
10:10 1018 30.06 847 25.01 3.6 38.4 45 -7.3 18.8
10:15 1018 30.06 847 25.01 3.5 38.2 46 -7.2 19
10:20 1018 30.06 847 25.01 3.7 38.7 43 -7.7 18.1
10:25 1018 30.06 848 25.04 4.2 39.6 42 -7.6 18.3
10:30 1018 30.06 847 25.01 3.9 39 45 -7.1 19.2
10:35 1018 30.06 847 25.01 3.8 38.8 45 -7.2 19.1
10:40 1018 30.06 847 25.01 3.5 38.3 46 -7.1 19.3
10:45 1018 30.06 848 25.04 3.3 37.9 47 -6.9 19.6
10:50 1018 30.06 848 25.04 3.1 37.6 47 -7 19.4
10:55 1018 30.06 848 25.04 3.8 38.8 45 -7.1 19.2
11:00 1019 30.09 848 25.04 4.1 39.3 48 -6 21.2
11:05 1019 30.09 848 25.04 3.4 38.1 48 -6.6 20.1
11:10 1019 30.09 848 25.04 3.1 37.6 49 -6.6 20.2
11:15 1019 30.09 848 25.04 3.3 37.9 47 -6.9 19.5
11:20 1019 30.09 848 25.04 3.4 38.1 44 -7.6 18.3
11:25 1019 30.09 848 25.04 3.5 38.2 44 -7.8 18
11:30 1019 30.09 848 25.04 3.5 38.3 43 -7.8 17.9
11:35 1019 30.09 848 25.04 3.5 38.4 44 -7.7 18.2
11:40 1019 30.09 848 25.04 3.5 38.4 44 -7.7 18.2
11:45 1019 30.09 848 25.04 3.6 38.5 43 -7.7 18.1
11:50 1019 30.09 848 25.04 3.9 39 43 -7.7 18.2
11:55 1019 30.09 848 25.04 3.9 39 43 -7.4 18.6
12:00 1019 30.09 848 25.04 4 39.1 43 -7.4 18.6
12:05 1019 30.09 848 25.04 4.1 39.4 43 -7.5 18.5
12:10 1019 30.09 848 25.04 4.4 39.9 42 -7.4 18.8
12:15 1019 30.09 848 25.04 4.5 40.1 43 -7.2 19.1
12:20 1019 30.09 848 25.04 4.6 40.2 41 -7.4 18.6
12:25 1019 30.09 848 25.04 4.4 39.9 42 -7.6 18.3
12:30 1019 30.09 848 25.04 4.5 40.2 40 -8 17.6
12:35 1019 30.09 848 25.04 4.8 40.6 40 -7.8 18
12:40 1019 30.09 848 25.04 5.4 41.7 40 -7.3 18.9
12:45 1019 30.09 848 25.04 5.8 42.5 39 -7 19.4
12:50 1019 30.09 848 25.04 6 42.8 37 -7.5 18.5
12:55 1019 30.09 848 25.04 5.8 42.5 36 -8.1 17.4
13:00 1019 30.09 848 25.04 6.3 43.3 35 -8 17.6
13:05 1019 30.09 848 25.04 5.9 42.7 36 -7.9 17.9
13:10 1019 30.09 848 25.04 6.1 42.9 34 -8.7 16.4
13:15 1019 30.09 848 25.04 5.6 42.1 35 -8.7 16.3
13:20 1019 30.09 848 25.04 5.3 41.5 37 -8.3 17.1
13:25 1019 30.09 848 25.04 5.5 41.9 36 -8.4 17
13:30 1019 30.09 848 25.04 5.7 42.3 34 -8.8 16.2
13:35 1019 30.09 848 25.04 6 42.7 33 -9.1 15.6
13:40 1019 30.09 848 25.04 6.3 43.4 32 -9.2 15.4
13:45 1019 30.09 848 25.04 6.5 43.6 32 -9 15.7
13:50 1019 30.09 848 25.04 6.5 43.7 32 -9.1 15.7
13:55 1019 30.09 848 25.04 6.7 44.1 31 -9.4 15.1
14:00 1019 30.09 848 25.04 6.8 44.3 30 -9.6 14.7
14:05 1019 30.09 848 25.04 6.9 44.4 31 -9.1 15.6
14:10 1019 30.09 848 25.04 6.8 44.2 29 -10.1 13.8
14:15 1019 30.09 848 25.04 6.7 44.1 30 -9.8 14.3
14:20 1019 30.09 848 25.04 6.8 44.3 30 -9.5 14.8
14:25 1019 30.09 848 25.04 7.1 44.8 29 -9.9 14.1
14:30 1019 30.09 848 25.04 6.9 44.4 29 -9.8 14.3
14:35 1019 30.09 848 25.04 6.7 44 30 -9.8 14.4
14:40 1019 30.09 848 25.04 6.7 44 30 -9.8 14.4
14:45 1019 30.09 848 25.04 6.9 44.4 29 -9.9 14.2
14:50 1019 30.09 848 25.04 7 44.7 28 -10.3 13.5
14:55 1019 30.09 848 25.04 7.1 44.8 27 -10.6 13
15:00 1019 30.09 848 25.04 7.1 44.7 28 -10.1 13.8
15:05 1019 30.09 848 25.04 7.2 44.9 28 -10.1 13.8
15:10 1019 30.09 848 25.04 7.2 45 28 -10.2 13.6
15:15 1019 30.09 848 25.04 7.1 44.8 29 -10 14.1
15:20 1019 30.09 848 25.04 7.2 45 28 -9.9 14.2
15:25 1019 30.09 848 25.04 7.3 45.1 29 -9.6 14.8
15:30 1019 30.09 848 25.04 7.3 45.1 30 -9.2 15.4
15:35 1019 30.09 848 25.04 6.7 44 31 -9.5 14.9
15:40 1019 30.09 848 25.04 6.7 44 31 -9.3 15.3
15:45 1019 30.09 848 25.04 6.2 43.1 31 -9.6 14.7
15:50 1019 30.09 848 25.04 5.6 42.2 32 -9.6 14.6
15:55 1019 30.09 848 25.04 5.4 41.8 33 -9.6 14.7
16:00 1019 30.09 848 25.04 5.9 42.6 33 -9.2 15.4
16:05 1019 30.09 848 25.04 6.5 43.7 33 -8.4 16.8
16:10 1019 30.09 848 25.04 5.9 42.6 34 -8.8 16.2
16:15 1019 30.09 848 25.04 5.6 42.1 33 -9.3 15.2
16:20 1019 30.09 848 25.04 5.8 42.5 31 -10.1 13.7
16:25 1019 30.09 848 25.04 6.2 43.2 31 -9.8 14.3
16:30 1019 30.09 848 25.04 6.5 43.6 30 -9.8 14.3
16:35 1019 30.09 848 25.04 6.4 43.5 29 -10.5 13.1
16:40 1019 30.09 848 25.04 6.5 43.6 29 -10.3 13.4
16:45 1019 30.09 848 25.04 6.5 43.7 29 -10.5 13.1
16:50 1019 30.09 848 25.04 6.5 43.7 29 -10.3 13.4
16:55 1019 30.09 848 25.04 6.2 43.2 29 -10.6 12.9
17:00 1019 30.09 848 25.04 6 42.8 31 -9.9 14.2
17:05 1019 30.09 848 25.04 5.4 41.7 32 -10.2 13.7
17:10 1019 30.09 848 25.04 5 41.1 32 -10.2 13.7
17:15 1019 30.09 848 25.04 5.1 41.1 31 -10.6 12.8
17:20 1019 30.09 848 25.04 4.9 40.8 33 -10 14
17:25 1019 30.09 849 25.07 4.4 40 35 -9.7 14.5
17:30 1019 30.09 849 25.07 3.9 39.1 37 -9.5 15
17:35 1019 30.09 849 25.07 3.5 38.3 38 -9.6 14.7
17:40 1019 30.09 849 25.07 3.6 38.5 37 -9.9 14.1
17:45 1019 30.09 848 25.04 3.6 38.6 37 -9.8 14.4
17:50 1019 30.09 848 25.04 3.6 38.4 38 -9.5 14.9
17:55 1019 30.09 848 25.04 3.4 38.2 39 -9.1 15.5
18:00 1019 30.09 848 25.04 3.1 37.6 40 -9.2 15.4
18:05 1019 30.09 849 25.07 2.9 37.2 41 -9.1 15.6
18:10 1019 30.09 849 25.07 2.9 37.2 41 -9.2 15.5
18:15 1019 30.09 849 25.07 2.9 37.2 40 -9.4 15.1
18:20 1019 30.09 849 25.07 3 37.4 38 -10 14.1
18:25 1019 30.09 849 25.07 3 37.4 37 -10.2 13.6
18:30 1019 30.09 849 25.07 2.9 37.1 38 -10 14
18:35 1019 30.09 849 25.07 2.7 36.9 40 -9.7 14.6
18:40 1019 30.09 849 25.07 2.4 36.3 40 -9.8 14.4
18:45 1020 30.12 849 25.07 2.1 35.7 42 -9.6 14.8
18:50 1020 30.12 849 25.07 1.3 34.3 42 -10.3 13.5
18:55 1020 30.12 849 25.07 1 33.8 42 -10.4 13.3
19:00 1020 30.12 849 25.07 1.2 34.2 40 -11 12.2
19:05 1020 30.12 849 25.07 1.4 34.5 40 -10.9 12.4
19:10 1020 30.12 849 25.07 1.2 34.1 40 -11 12.1
19:15 1020 30.12 849 25.07 1.1 34 39 -11.3 11.6
19:20 1020 30.12 849 25.07 1.2 34.2 39 -11.4 11.5
19:25 1020 30.12 849 25.07 0.9 33.6 40 -11.2 11.9
19:30 1020 30.12 849 25.07 0.3 32.6 42 -11.1 12
19:35 1020 30.12 849 25.07 0.1 32.2 42 -11.4 11.6
19:40 1020 30.12 849 25.07 0.1 32.2 43 -11 12.2
19:45 1020 30.12 849 25.07 -0.1 31.9 45 -10.7 12.7
19:50 1020 30.12 849 25.07 -0.5 31.1 44 -11.2 11.8
19:55 1020 30.12 849 25.07 -0.6 30.9 44 -11.6 11.2
20:00 1020 30.12 849 25.07 -0.5 31.1 45 -11.2 11.9
20:05 1020 30.12 849 25.07 -0.5 31 47 -10.6 13
20:10 1020 30.12 849 25.07 -0.8 30.6 48 -10.5 13.1
20:15 1020 30.12 849 25.07 -0.7 30.7 47 -10.7 12.7
20:20 1020 30.12 849 25.07 -1 30.2 49 -10.3 13.4
20:25 1020 30.12 849 25.07 -1 30.2 50 -10.2 13.7
20:30 1020 30.12 849 25.07 -0.9 30.4 48 -10.6 13
20:35 1020 30.12 849 25.07 -1 30.2 50 -10.2 13.6
20:40 1020 30.12 849 25.07 -1.3 29.7 50 -10.4 13.2
20:45 1020 30.12 849 25.07 -1.2 29.8 48 -10.8 12.5
20:50 1020 30.12 849 25.07 -1 30.2 49 -10.5 13.2
20:55 1020 30.12 849 25.07 -1 30.1 48 -10.7 12.7
21:00 1020 30.12 849 25.07 -0.8 30.6 47 -10.8 12.6
21:05 1019 30.09 849 25.07 -0.8 30.5 46 -10.9 12.4
21:10 1019 30.09 848 25.04 -0.7 30.8 46 -10.9 12.4
21:15 1019 30.09 848 25.04 -0.8 30.6 45 -11.3 11.7
21:20 1019 30.09 848 25.04 -0.8 30.5 45 -11.4 11.6
21:25 1019 30.09 848 25.04 -0.9 30.4 45 -11.5 11.4
21:30 1019 30.09 848 25.04 -0.8 30.5 44 -11.6 11.1
21:35 1019 30.09 848 25.04 -0.9 30.4 44 -11.8 10.8
21:40 1019 30.09 848 25.04 -0.9 30.4 43 -12.1 10.2
21:45 1019 30.09 848 25.04 -0.6 30.9 42 -12.2 10.1
21:50 1019 30.09 848 25.04 -0.6 30.9 42 -12.1 10.2
21:55 1019 30.09 848 25.04 -0.5 31.1 40 -12.4 9.6
22:00 1019 30.09 848 25.04 -0.4 31.3 41 -12.2 10
22:05 1019 30.09 848 25.04 -0.5 31 42 -12.1 10.3
22:10 1019 30.09 848 25.04 -0.8 30.6 44 -11.7 11
22:15 1019 30.09 848 25.04 -1.1 30.1 42 -12.5 9.5
22:20 1019 30.09 849 25.07 -1.3 29.7 43 -12.4 9.7
22:25 1019 30.09 849 25.07 -1.4 29.4 42 -12.6 9.3
22:30 1019 30.09 848 25.04 -1.5 29.4 44 -12.1 10.1
22:35 1019 30.09 848 25.04 -1.1 30 39 -13.5 7.8
22:40 1019 30.09 849 25.07 -1 30.2 42 -12.5 9.5
22:45 1019 30.09 849 25.07 -1.6 29.1 41 -13.3 8.1
22:50 1019 30.09 848 25.04 -1.7 28.9 42 -12.9 8.7
22:55 1019 30.09 848 25.04 -1.7 28.9 43 -12.8 9
23:00 1019 30.09 848 25.04 -1.8 28.8 43 -12.9 8.8
23:05 1019 30.09 848 25.04 -1.8 28.8 41 -13.3 8
23:10 1019 30.09 848 25.04 -1.6 29.1 41 -13.3 8
23:15 1019 30.09 848 25.04 -1.6 29.1 41 -13.3 8
23:20 1019 30.09 848 25.04 -1.6 29.2 41 -13.1 8.3
23:25 1019 30.09 848 25.04 -1.7 29 41 -13.2 8.2
23:30 1019 30.09 848 25.04 -1.9 28.5 42 -13.1 8.4
23:35 1019 30.09 848 25.04 -2.1 28.3 43 -13 8.6
23:40 1018 30.06 848 25.04 -1.9 28.7 41 -13.3 8
23:45 1018 30.06 848 25.04 -1.7 28.9 42 -13 8.6
23:50 1018 30.06 848 25.04 -1.8 28.8 43 -12.9 8.7
23:55 1018 30.06 847 25.01 -1.7 28.9 42 -12.9 8.8
24:00 1018 30.06 847 25.01 -1.7 28.9 43 -12.8 9